sensor_id;sensor_type;location;lat;lon;timestamp;P1;durP1;ratioP1;P2;durP2;ratioP2
71777;SDS011;59609;52.430;4.668;2023-11-21T00:00:17;17.48;;;5.45;;
71777;SDS011;59609;52.430;4.668;2023-11-21T00:02:43;18.27;;;5.93;;
71777;SDS011;59609;52.430;4.668;2023-11-21T00:05:09;16.20;;;5.70;;
71777;SDS011;59609;52.430;4.668;2023-11-21T00:07:35;20.38;;;6.07;;
71777;SDS011;59609;52.430;4.668;2023-11-21T00:10:00;17.17;;;5.55;;
71777;SDS011;59609;52.430;4.668;2023-11-21T00:12:26;14.87;;;6.33;;
71777;SDS011;59609;52.430;4.668;2023-11-21T00:14:51;16.60;;;5.43;;
71777;SDS011;59609;52.430;4.668;2023-11-21T00:17:16;18.73;;;7.33;;
71777;SDS011;59609;52.430;4.668;2023-11-21T00:19:41;13.53;;;4.90;;
71777;SDS011;59609;52.430;4.668;2023-11-21T00:22:08;12.13;;;4.35;;
71777;SDS011;59609;52.430;4.668;2023-11-21T00:24:34;15.07;;;4.20;;
71777;SDS011;59609;52.430;4.668;2023-11-21T00:26:59;10.73;;;4.57;;
71777;SDS011;59609;52.430;4.668;2023-11-21T00:29:24;8.50;;;3.67;;
71777;SDS011;59609;52.430;4.668;2023-11-21T00:31:49;16.20;;;4.53;;
71777;SDS011;59609;52.430;4.668;2023-11-21T00:34:15;11.77;;;4.47;;
71777;SDS011;59609;52.430;4.668;2023-11-21T00:36:40;9.93;;;4.60;;
71777;SDS011;59609;52.430;4.668;2023-11-21T00:39:05;17.90;;;5.40;;
71777;SDS011;59609;52.430;4.668;2023-11-21T00:41:31;11.45;;;5.30;;
71777;SDS011;59609;52.430;4.668;2023-11-21T00:43:56;15.73;;;4.72;;
71777;SDS011;59609;52.430;4.668;2023-11-21T00:46:22;14.73;;;4.75;;
71777;SDS011;59609;52.430;4.668;2023-11-21T00:48:49;15.05;;;4.53;;
71777;SDS011;59609;52.430;4.668;2023-11-21T00:51:14;15.23;;;4.07;;
71777;SDS011;59609;52.430;4.668;2023-11-21T00:53:39;10.10;;;4.17;;
71777;SDS011;59609;52.430;4.668;2023-11-21T00:56:04;10.70;;;3.63;;
71777;SDS011;59609;52.430;4.668;2023-11-21T00:58:30;14.85;;;4.68;;
71777;SDS011;59609;52.430;4.668;2023-11-21T01:00:55;14.70;;;4.37;;
71777;SDS011;59609;52.430;4.668;2023-11-21T01:03:21;11.82;;;4.28;;
71777;SDS011;59609;52.430;4.668;2023-11-21T01:05:46;15.50;;;4.30;;
71777;SDS011;59609;52.430;4.668;2023-11-21T01:08:11;14.77;;;4.70;;
71777;SDS011;59609;52.430;4.668;2023-11-21T01:10:37;12.00;;;4.93;;
71777;SDS011;59609;52.430;4.668;2023-11-21T01:13:02;11.45;;;4.75;;
71777;SDS011;59609;52.430;4.668;2023-11-21T01:15:30;15.88;;;5.07;;
71777;SDS011;59609;52.430;4.668;2023-11-21T01:17:55;16.17;;;4.67;;
71777;SDS011;59609;52.430;4.668;2023-11-21T01:20:20;11.67;;;4.90;;
71777;SDS011;59609;52.430;4.668;2023-11-21T01:22:45;15.60;;;4.97;;
71777;SDS011;59609;52.430;4.668;2023-11-21T01:25:13;13.45;;;4.60;;
71777;SDS011;59609;52.430;4.668;2023-11-21T01:27:39;14.48;;;4.95;;
71777;SDS011;59609;52.430;4.668;2023-11-21T01:30:04;11.53;;;4.03;;
71777;SDS011;59609;52.430;4.668;2023-11-21T01:32:32;13.25;;;5.00;;
71777;SDS011;59609;52.430;4.668;2023-11-21T01:34:57;8.93;;;3.83;;
71777;SDS011;59609;52.430;4.668;2023-11-21T01:37:22;14.10;;;3.97;;
71777;SDS011;59609;52.430;4.668;2023-11-21T01:39:48;11.05;;;3.97;;
71777;SDS011;59609;52.430;4.668;2023-11-21T01:42:13;10.52;;;3.50;;
71777;SDS011;59609;52.430;4.668;2023-11-21T01:44:38;10.87;;;3.47;;
71777;SDS011;59609;52.430;4.668;2023-11-21T01:47:04;9.98;;;3.58;;
71777;SDS011;59609;52.430;4.668;2023-11-21T01:49:31;8.52;;;3.50;;
71777;SDS011;59609;52.430;4.668;2023-11-21T01:51:58;6.05;;;3.03;;
71777;SDS011;59609;52.430;4.668;2023-11-21T01:54:23;8.85;;;3.35;;
71777;SDS011;59609;52.430;4.668;2023-11-21T01:56:48;9.27;;;3.33;;
71777;SDS011;59609;52.430;4.668;2023-11-21T01:59:14;10.37;;;3.97;;
71777;SDS011;59609;52.430;4.668;2023-11-21T02:01:42;8.77;;;3.83;;
71777;SDS011;59609;52.430;4.668;2023-11-21T02:04:08;12.55;;;4.60;;
71777;SDS011;59609;52.430;4.668;2023-11-21T02:06:34;6.55;;;3.35;;
71777;SDS011;59609;52.430;4.668;2023-11-21T02:09:00;9.43;;;3.72;;
71777;SDS011;59609;52.430;4.668;2023-11-21T02:11:25;11.90;;;4.47;;
71777;SDS011;59609;52.430;4.668;2023-11-21T02:13:52;10.35;;;4.05;;
71777;SDS011;59609;52.430;4.668;2023-11-21T02:16:19;9.70;;;3.58;;
71777;SDS011;59609;52.430;4.668;2023-11-21T02:18:45;9.00;;;3.72;;
71777;SDS011;59609;52.430;4.668;2023-11-21T02:21:12;8.60;;;3.70;;
71777;SDS011;59609;52.430;4.668;2023-11-21T02:23:37;10.82;;;3.55;;
71777;SDS011;59609;52.430;4.668;2023-11-21T02:26:07;9.93;;;3.38;;
71777;SDS011;59609;52.430;4.668;2023-11-21T02:28:32;7.33;;;3.53;;
71777;SDS011;59609;52.430;4.668;2023-11-21T02:30:58;9.57;;;3.28;;
71777;SDS011;59609;52.430;4.668;2023-11-21T02:33:24;10.77;;;3.50;;
71777;SDS011;59609;52.430;4.668;2023-11-21T02:35:49;10.13;;;2.92;;
71777;SDS011;59609;52.430;4.668;2023-11-21T02:38:16;9.00;;;3.67;;
71777;SDS011;59609;52.430;4.668;2023-11-21T02:40:41;11.77;;;3.20;;
71777;SDS011;59609;52.430;4.668;2023-11-21T02:43:07;15.05;;;3.25;;
71777;SDS011;59609;52.430;4.668;2023-11-21T02:45:32;10.17;;;3.37;;
71777;SDS011;59609;52.430;4.668;2023-11-21T02:47:57;12.83;;;3.50;;
71777;SDS011;59609;52.430;4.668;2023-11-21T02:50:23;7.25;;;3.13;;
71777;SDS011;59609;52.430;4.668;2023-11-21T02:52:48;7.82;;;3.35;;
71777;SDS011;59609;52.430;4.668;2023-11-21T02:55:14;13.10;;;3.15;;
71777;SDS011;59609;52.430;4.668;2023-11-21T02:57:39;14.83;;;4.33;;
71777;SDS011;59609;52.430;4.668;2023-11-21T03:00:04;14.13;;;5.17;;
71777;SDS011;59609;52.430;4.668;2023-11-21T03:02:32;11.88;;;3.10;;
71777;SDS011;59609;52.430;4.668;2023-11-21T03:04:57;10.37;;;2.77;;
71777;SDS011;59609;52.430;4.668;2023-11-21T03:07:23;3.27;;;2.20;;
71777;SDS011;59609;52.430;4.668;2023-11-21T03:09:48;5.50;;;2.40;;
71777;SDS011;59609;52.430;4.668;2023-11-21T03:12:13;3.13;;;2.20;;
71777;SDS011;59609;52.430;4.668;2023-11-21T03:14:39;3.40;;;2.05;;
71777;SDS011;59609;52.430;4.668;2023-11-21T03:17:04;2.63;;;1.40;;
71777;SDS011;59609;52.430;4.668;2023-11-21T03:19:30;5.07;;;1.70;;
71777;SDS011;59609;52.430;4.668;2023-11-21T03:21:55;2.58;;;1.60;;
71777;SDS011;59609;52.430;4.668;2023-11-21T03:24:20;4.43;;;1.70;;
71777;SDS011;59609;52.430;4.668;2023-11-21T03:26:47;3.72;;;1.52;;
71777;SDS011;59609;52.430;4.668;2023-11-21T03:29:12;2.30;;;1.30;;
71777;SDS011;59609;52.430;4.668;2023-11-21T03:31:38;2.83;;;1.40;;
71777;SDS011;59609;52.430;4.668;2023-11-21T03:34:03;3.03;;;1.35;;
71777;SDS011;59609;52.430;4.668;2023-11-21T03:36:28;2.03;;;1.30;;
71777;SDS011;59609;52.430;4.668;2023-11-21T03:38:54;4.90;;;1.38;;
71777;SDS011;59609;52.430;4.668;2023-11-21T03:41:20;2.45;;;1.30;;
71777;SDS011;59609;52.430;4.668;2023-11-21T03:43:45;2.67;;;1.20;;
71777;SDS011;59609;52.430;4.668;2023-11-21T03:46:11;2.20;;;1.27;;
71777;SDS011;59609;52.430;4.668;2023-11-21T03:48:37;3.50;;;1.35;;
71777;SDS011;59609;52.430;4.668;2023-11-21T03:51:02;1.90;;;1.20;;
71777;SDS011;59609;52.430;4.668;2023-11-21T03:53:28;2.35;;;1.02;;
71777;SDS011;59609;52.430;4.668;2023-11-21T03:55:53;2.27;;;1.30;;
71777;SDS011;59609;52.430;4.668;2023-11-21T03:58:18;2.10;;;1.27;;
71777;SDS011;59609;52.430;4.668;2023-11-21T04:00:43;3.17;;;1.23;;
71777;SDS011;59609;52.430;4.668;2023-11-21T04:03:08;1.83;;;1.50;;
71777;SDS011;59609;52.430;4.668;2023-11-21T04:05:34;2.28;;;1.30;;
71777;SDS011;59609;52.430;4.668;2023-11-21T04:07:59;3.33;;;1.40;;
71777;SDS011;59609;52.430;4.668;2023-11-21T04:10:24;3.40;;;1.70;;
71777;SDS011;59609;52.430;4.668;2023-11-21T04:12:49;3.40;;;1.30;;
71777;SDS011;59609;52.430;4.668;2023-11-21T04:15:15;3.83;;;1.47;;
71777;SDS011;59609;52.430;4.668;2023-11-21T04:17:41;2.55;;;1.35;;
71777;SDS011;59609;52.430;4.668;2023-11-21T04:20:06;4.75;;;1.77;;
71777;SDS011;59609;52.430;4.668;2023-11-21T04:22:41;1.92;;;1.55;;
71777;SDS011;59609;52.430;4.668;2023-11-21T04:25:09;2.90;;;1.50;;
71777;SDS011;59609;52.430;4.668;2023-11-21T04:27:36;2.47;;;1.42;;
71777;SDS011;59609;52.430;4.668;2023-11-21T04:30:01;4.10;;;1.58;;
71777;SDS011;59609;52.430;4.668;2023-11-21T04:32:26;6.80;;;2.20;;
71777;SDS011;59609;52.430;4.668;2023-11-21T04:34:51;2.10;;;1.83;;
71777;SDS011;59609;52.430;4.668;2023-11-21T04:37:16;3.47;;;1.43;;
71777;SDS011;59609;52.430;4.668;2023-11-21T04:39:42;2.87;;;1.40;;
71777;SDS011;59609;52.430;4.668;2023-11-21T04:42:07;3.13;;;1.43;;
71777;SDS011;59609;52.430;4.668;2023-11-21T04:44:32;4.33;;;1.50;;
71777;SDS011;59609;52.430;4.668;2023-11-21T04:46:57;4.03;;;1.42;;
71777;SDS011;59609;52.430;4.668;2023-11-21T04:49:23;5.03;;;1.60;;
71777;SDS011;59609;52.430;4.668;2023-11-21T04:51:48;4.30;;;1.47;;
71777;SDS011;59609;52.430;4.668;2023-11-21T04:54:13;5.60;;;1.77;;
71777;SDS011;59609;52.430;4.668;2023-11-21T04:56:38;6.10;;;1.90;;
71777;SDS011;59609;52.430;4.668;2023-11-21T04:59:03;5.60;;;2.33;;
71777;SDS011;59609;52.430;4.668;2023-11-21T05:01:29;5.47;;;1.92;;
71777;SDS011;59609;52.430;4.668;2023-11-21T05:03:55;6.60;;;1.98;;
71777;SDS011;59609;52.430;4.668;2023-11-21T05:06:22;7.97;;;1.63;;
71777;SDS011;59609;52.430;4.668;2023-11-21T05:08:48;5.45;;;2.25;;
71777;SDS011;59609;52.430;4.668;2023-11-21T05:11:22;3.47;;;2.00;;
71777;SDS011;59609;52.430;4.668;2023-11-21T05:13:48;6.22;;;2.20;;
71777;SDS011;59609;52.430;4.668;2023-11-21T05:16:13;10.05;;;2.47;;
71777;SDS011;59609;52.430;4.668;2023-11-21T05:18:39;8.50;;;2.75;;
71777;SDS011;59609;52.430;4.668;2023-11-21T05:21:05;8.18;;;2.03;;
71777;SDS011;59609;52.430;4.668;2023-11-21T05:23:30;8.40;;;2.20;;
71777;SDS011;59609;52.430;4.668;2023-11-21T05:25:55;9.07;;;2.50;;
71777;SDS011;59609;52.430;4.668;2023-11-21T05:28:22;8.07;;;2.63;;
71777;SDS011;59609;52.430;4.668;2023-11-21T05:30:47;16.20;;;2.87;;
71777;SDS011;59609;52.430;4.668;2023-11-21T05:33:12;8.70;;;2.80;;
71777;SDS011;59609;52.430;4.668;2023-11-21T05:35:37;10.17;;;2.90;;
71777;SDS011;59609;52.430;4.668;2023-11-21T05:38:03;7.80;;;2.37;;
71777;SDS011;59609;52.430;4.668;2023-11-21T05:40:28;8.82;;;3.20;;
71777;SDS011;59609;52.430;4.668;2023-11-21T05:42:55;10.30;;;3.13;;
71777;SDS011;59609;52.430;4.668;2023-11-21T05:45:20;9.25;;;2.63;;
71777;SDS011;59609;52.430;4.668;2023-11-21T05:47:46;9.85;;;2.95;;
71777;SDS011;59609;52.430;4.668;2023-11-21T05:50:13;7.60;;;3.13;;
71777;SDS011;59609;52.430;4.668;2023-11-21T05:52:41;11.80;;;3.53;;
71777;SDS011;59609;52.430;4.668;2023-11-21T05:55:07;12.35;;;3.58;;
71777;SDS011;59609;52.430;4.668;2023-11-21T05:57:33;8.18;;;2.83;;
71777;SDS011;59609;52.430;4.668;2023-11-21T06:00:01;8.20;;;3.47;;
71777;SDS011;59609;52.430;4.668;2023-11-21T06:02:35;15.35;;;2.90;;
71777;SDS011;59609;52.430;4.668;2023-11-21T06:05:00;15.33;;;3.53;;
71777;SDS011;59609;52.430;4.668;2023-11-21T06:07:25;14.63;;;3.20;;
71777;SDS011;59609;52.430;4.668;2023-11-21T06:09:50;14.10;;;3.10;;
71777;SDS011;59609;52.430;4.668;2023-11-21T06:12:16;8.63;;;2.72;;
71777;SDS011;59609;52.430;4.668;2023-11-21T06:14:41;10.50;;;3.10;;
71777;SDS011;59609;52.430;4.668;2023-11-21T06:17:06;6.50;;;2.70;;
71777;SDS011;59609;52.430;4.668;2023-11-21T06:19:31;8.47;;;2.70;;
71777;SDS011;59609;52.430;4.668;2023-11-21T06:21:57;10.17;;;2.20;;
71777;SDS011;59609;52.430;4.668;2023-11-21T06:24:22;5.67;;;1.50;;
71777;SDS011;59609;52.430;4.668;2023-11-21T06:26:47;5.00;;;1.63;;
71777;SDS011;59609;52.430;4.668;2023-11-21T06:29:13;5.35;;;1.50;;
71777;SDS011;59609;52.430;4.668;2023-11-21T06:31:38;9.48;;;2.45;;
71777;SDS011;59609;52.430;4.668;2023-11-21T06:34:05;10.38;;;2.35;;
71777;SDS011;59609;52.430;4.668;2023-11-21T06:36:31;5.65;;;2.22;;
71777;SDS011;59609;52.430;4.668;2023-11-21T06:38:56;9.00;;;2.43;;
71777;SDS011;59609;52.430;4.668;2023-11-21T06:41:21;8.70;;;2.67;;
71777;SDS011;59609;52.430;4.668;2023-11-21T06:43:47;7.82;;;2.88;;
71777;SDS011;59609;52.430;4.668;2023-11-21T06:46:13;9.15;;;3.75;;
71777;SDS011;59609;52.430;4.668;2023-11-21T06:48:42;7.53;;;4.00;;
71777;SDS011;59609;52.430;4.668;2023-11-21T06:51:07;9.40;;;3.20;;
71777;SDS011;59609;52.430;4.668;2023-11-21T06:53:33;11.18;;;3.08;;
71777;SDS011;59609;52.430;4.668;2023-11-21T06:55:59;12.90;;;3.42;;
71777;SDS011;59609;52.430;4.668;2023-11-21T06:58:24;12.77;;;3.50;;
71777;SDS011;59609;52.430;4.668;2023-11-21T07:00:49;10.17;;;3.70;;
71777;SDS011;59609;52.430;4.668;2023-11-21T07:03:15;9.10;;;3.38;;
71777;SDS011;59609;52.430;4.668;2023-11-21T07:05:40;11.80;;;3.87;;
71777;SDS011;59609;52.430;4.668;2023-11-21T07:08:05;10.93;;;4.20;;
71777;SDS011;59609;52.430;4.668;2023-11-21T07:10:32;12.30;;;4.15;;
71777;SDS011;59609;52.430;4.668;2023-11-21T07:12:57;14.07;;;3.83;;
71777;SDS011;59609;52.430;4.668;2023-11-21T07:15:23;8.20;;;3.60;;
71777;SDS011;59609;52.430;4.668;2023-11-21T07:17:49;12.57;;;4.30;;
71777;SDS011;59609;52.430;4.668;2023-11-21T07:20:14;17.50;;;4.67;;
71777;SDS011;59609;52.430;4.668;2023-11-21T07:22:42;10.93;;;3.53;;
71777;SDS011;59609;52.430;4.668;2023-11-21T07:25:07;12.77;;;4.10;;
71777;SDS011;59609;52.430;4.668;2023-11-21T07:27:34;8.90;;;3.30;;
71777;SDS011;59609;52.430;4.668;2023-11-21T07:30:01;14.30;;;4.72;;
71777;SDS011;59609;52.430;4.668;2023-11-21T07:32:28;10.85;;;3.75;;
71777;SDS011;59609;52.430;4.668;2023-11-21T07:34:53;9.03;;;3.67;;
71777;SDS011;59609;52.430;4.668;2023-11-21T07:37:18;14.77;;;3.90;;
71777;SDS011;59609;52.430;4.668;2023-11-21T07:39:44;9.07;;;3.58;;
71777;SDS011;59609;52.430;4.668;2023-11-21T07:42:10;11.10;;;3.63;;
71777;SDS011;59609;52.430;4.668;2023-11-21T07:44:36;8.65;;;3.42;;
71777;SDS011;59609;52.430;4.668;2023-11-21T07:47:01;6.83;;;3.63;;
71777;SDS011;59609;52.430;4.668;2023-11-21T07:49:27;13.00;;;4.10;;
71777;SDS011;59609;52.430;4.668;2023-11-21T07:51:52;7.60;;;3.03;;
71777;SDS011;59609;52.430;4.668;2023-11-21T07:54:17;12.38;;;4.00;;
71777;SDS011;59609;52.430;4.668;2023-11-21T07:56:42;10.82;;;3.78;;
71777;SDS011;59609;52.430;4.668;2023-11-21T07:59:08;7.97;;;3.30;;
71777;SDS011;59609;52.430;4.668;2023-11-21T08:01:33;10.20;;;3.50;;
71777;SDS011;59609;52.430;4.668;2023-11-21T08:03:58;8.00;;;3.60;;
71777;SDS011;59609;52.430;4.668;2023-11-21T08:06:28;12.05;;;3.90;;
71777;SDS011;59609;52.430;4.668;2023-11-21T08:08:53;9.80;;;3.72;;
71777;SDS011;59609;52.430;4.668;2023-11-21T08:11:19;13.50;;;4.70;;
71777;SDS011;59609;52.430;4.668;2023-11-21T08:13:44;12.73;;;4.32;;
71777;SDS011;59609;52.430;4.668;2023-11-21T08:16:10;11.52;;;4.10;;
71777;SDS011;59609;52.430;4.668;2023-11-21T08:18:37;9.23;;;4.15;;
71777;SDS011;59609;52.430;4.668;2023-11-21T08:21:02;11.33;;;4.17;;
71777;SDS011;59609;52.430;4.668;2023-11-21T08:23:28;12.48;;;4.60;;
71777;SDS011;59609;52.430;4.668;2023-11-21T08:25:53;8.98;;;4.28;;
71777;SDS011;59609;52.430;4.668;2023-11-21T08:28:19;10.63;;;4.65;;
71777;SDS011;59609;52.430;4.668;2023-11-21T08:30:44;9.25;;;3.90;;
71777;SDS011;59609;52.430;4.668;2023-11-21T08:33:09;12.02;;;5.63;;
71777;SDS011;59609;52.430;4.668;2023-11-21T08:35:36;7.68;;;3.67;;
71777;SDS011;59609;52.430;4.668;2023-11-21T08:38:02;9.57;;;3.65;;
71777;SDS011;59609;52.430;4.668;2023-11-21T08:40:27;8.15;;;3.35;;
71777;SDS011;59609;52.430;4.668;2023-11-21T08:42:53;6.45;;;3.33;;
71777;SDS011;59609;52.430;4.668;2023-11-21T08:45:19;9.98;;;3.55;;
71777;SDS011;59609;52.430;4.668;2023-11-21T08:47:45;11.07;;;5.33;;
71777;SDS011;59609;52.430;4.668;2023-11-21T08:50:10;8.50;;;4.93;;
71777;SDS011;59609;52.430;4.668;2023-11-21T08:52:37;8.25;;;5.10;;
71777;SDS011;59609;52.430;4.668;2023-11-21T08:55:02;6.85;;;4.85;;
71777;SDS011;59609;52.430;4.668;2023-11-21T08:57:33;8.93;;;4.53;;
71777;SDS011;59609;52.430;4.668;2023-11-21T08:59:58;8.43;;;4.53;;
71777;SDS011;59609;52.430;4.668;2023-11-21T09:02:23;10.23;;;5.80;;
71777;SDS011;59609;52.430;4.668;2023-11-21T09:04:51;8.52;;;4.88;;
71777;SDS011;59609;52.430;4.668;2023-11-21T09:07:17;6.95;;;4.80;;
71777;SDS011;59609;52.430;4.668;2023-11-21T09:09:43;9.18;;;4.55;;
71777;SDS011;59609;52.430;4.668;2023-11-21T09:12:09;9.30;;;4.83;;
71777;SDS011;59609;52.430;4.668;2023-11-21T09:14:37;6.25;;;4.72;;
71777;SDS011;59609;52.430;4.668;2023-11-21T09:17:02;7.20;;;4.70;;
71777;SDS011;59609;52.430;4.668;2023-11-21T09:19:28;9.30;;;4.63;;
71777;SDS011;59609;52.430;4.668;2023-11-21T09:21:53;6.10;;;4.80;;
71777;SDS011;59609;52.430;4.668;2023-11-21T09:24:19;6.07;;;4.63;;
71777;SDS011;59609;52.430;4.668;2023-11-21T09:26:44;7.60;;;4.47;;
71777;SDS011;59609;52.430;4.668;2023-11-21T09:29:10;7.63;;;4.93;;
71777;SDS011;59609;52.430;4.668;2023-11-21T09:31:35;6.47;;;5.00;;
71777;SDS011;59609;52.430;4.668;2023-11-21T09:34:00;6.70;;;5.13;;
71777;SDS011;59609;52.430;4.668;2023-11-21T09:36:27;8.55;;;5.72;;
71777;SDS011;59609;52.430;4.668;2023-11-21T09:38:55;8.82;;;5.60;;
71777;SDS011;59609;52.430;4.668;2023-11-21T09:41:28;7.50;;;5.32;;
71777;SDS011;59609;52.430;4.668;2023-11-21T09:43:56;7.97;;;5.32;;
71777;SDS011;59609;52.430;4.668;2023-11-21T09:46:21;7.30;;;5.00;;
71777;SDS011;59609;52.430;4.668;2023-11-21T09:48:50;12.07;;;5.30;;
71777;SDS011;59609;52.430;4.668;2023-11-21T09:51:18;6.88;;;4.00;;
71777;SDS011;59609;52.430;4.668;2023-11-21T09:53:45;8.15;;;5.10;;
71777;SDS011;59609;52.430;4.668;2023-11-21T09:56:11;10.82;;;5.63;;
71777;SDS011;59609;52.430;4.668;2023-11-21T09:58:36;6.82;;;5.43;;
71777;SDS011;59609;52.430;4.668;2023-11-21T10:01:01;7.50;;;5.70;;
71777;SDS011;59609;52.430;4.668;2023-11-21T10:03:28;7.97;;;6.22;;
71777;SDS011;59609;52.430;4.668;2023-11-21T10:05:54;11.27;;;6.50;;
71777;SDS011;59609;52.430;4.668;2023-11-21T10:08:21;12.52;;;7.40;;
71777;SDS011;59609;52.430;4.668;2023-11-21T10:10:49;11.52;;;6.50;;
71777;SDS011;59609;52.430;4.668;2023-11-21T10:13:16;11.13;;;6.75;;
71777;SDS011;59609;52.430;4.668;2023-11-21T10:15:43;8.65;;;6.57;;
71777;SDS011;59609;52.430;4.668;2023-11-21T10:18:13;9.23;;;6.28;;
71777;SDS011;59609;52.430;4.668;2023-11-21T10:20:40;11.40;;;7.35;;
71777;SDS011;59609;52.430;4.668;2023-11-21T10:23:05;8.70;;;6.03;;
71777;SDS011;59609;52.430;4.668;2023-11-21T10:25:32;12.90;;;6.43;;
71777;SDS011;59609;52.430;4.668;2023-11-21T10:27:58;10.25;;;7.25;;
71777;SDS011;59609;52.430;4.668;2023-11-21T10:30:32;10.73;;;6.93;;
71777;SDS011;59609;52.430;4.668;2023-11-21T10:33:01;10.15;;;6.53;;
71777;SDS011;59609;52.430;4.668;2023-11-21T10:35:38;11.27;;;6.88;;
71777;SDS011;59609;52.430;4.668;2023-11-21T10:38:03;10.35;;;6.63;;
71777;SDS011;59609;52.430;4.668;2023-11-21T10:40:29;12.48;;;8.50;;
71777;SDS011;59609;52.430;4.668;2023-11-21T10:42:54;12.10;;;7.20;;
71777;SDS011;59609;52.430;4.668;2023-11-21T10:45:19;11.63;;;7.63;;
71777;SDS011;59609;52.430;4.668;2023-11-21T10:47:44;10.83;;;7.27;;
71777;SDS011;59609;52.430;4.668;2023-11-21T10:50:10;9.73;;;7.67;;
71777;SDS011;59609;52.430;4.668;2023-11-21T10:52:36;10.30;;;7.45;;
71777;SDS011;59609;52.430;4.668;2023-11-21T10:55:15;10.07;;;6.88;;
71777;SDS011;59609;52.430;4.668;2023-11-21T10:57:41;11.48;;;8.13;;
71777;SDS011;59609;52.430;4.668;2023-11-21T11:00:06;15.60;;;8.20;;
71777;SDS011;59609;52.430;4.668;2023-11-21T11:02:31;9.35;;;7.35;;
71777;SDS011;59609;52.430;4.668;2023-11-21T11:04:59;11.50;;;8.30;;
71777;SDS011;59609;52.430;4.668;2023-11-21T11:07:26;11.70;;;8.15;;
71777;SDS011;59609;52.430;4.668;2023-11-21T11:09:53;9.80;;;7.85;;
71777;SDS011;59609;52.430;4.668;2023-11-21T11:12:18;10.85;;;8.23;;
71777;SDS011;59609;52.430;4.668;2023-11-21T11:14:44;12.40;;;8.32;;
71777;SDS011;59609;52.430;4.668;2023-11-21T11:17:10;10.90;;;8.45;;
71777;SDS011;59609;52.430;4.668;2023-11-21T11:19:35;13.93;;;8.00;;
71777;SDS011;59609;52.430;4.668;2023-11-21T11:35:33;14.30;;;8.55;;
71777;SDS011;59609;52.430;4.668;2023-11-21T11:37:39;11.63;;;7.65;;
71777;SDS011;59609;52.430;4.668;2023-11-21T11:40:06;9.82;;;8.10;;
71777;SDS011;59609;52.430;4.668;2023-11-21T11:42:32;11.73;;;8.73;;
71777;SDS011;59609;52.430;4.668;2023-11-21T11:44:57;11.35;;;8.25;;
71777;SDS011;59609;52.430;4.668;2023-11-21T11:47:27;12.43;;;7.70;;
71777;SDS011;59609;52.430;4.668;2023-11-21T11:50:04;13.18;;;8.30;;
71777;SDS011;59609;52.430;4.668;2023-11-21T11:55:08;9.10;;;8.05;;
71777;SDS011;59609;52.430;4.668;2023-11-21T11:57:37;13.95;;;8.07;;
71777;SDS011;59609;52.430;4.668;2023-11-21T12:02:34;12.75;;;8.23;;
71777;SDS011;59609;52.430;4.668;2023-11-21T12:04:59;13.45;;;8.90;;
71777;SDS011;59609;52.430;4.668;2023-11-21T12:07:25;11.20;;;7.73;;
71777;SDS011;59609;52.430;4.668;2023-11-21T12:10:04;8.82;;;7.45;;
71777;SDS011;59609;52.430;4.668;2023-11-21T12:12:30;9.57;;;7.10;;
71777;SDS011;59609;52.430;4.668;2023-11-21T12:14:57;9.90;;;7.05;;
71777;SDS011;59609;52.430;4.668;2023-11-21T12:17:23;10.38;;;6.63;;
71777;SDS011;59609;52.430;4.668;2023-11-21T12:19:49;9.40;;;6.33;;
71777;SDS011;59609;52.430;4.668;2023-11-21T12:22:17;7.55;;;6.85;;
71777;SDS011;59609;52.430;4.668;2023-11-21T12:24:43;9.30;;;6.80;;
71777;SDS011;59609;52.430;4.668;2023-11-21T12:27:09;7.63;;;6.17;;
71777;SDS011;59609;52.430;4.668;2023-11-21T12:29:34;8.50;;;6.10;;
71777;SDS011;59609;52.430;4.668;2023-11-21T12:31:59;7.40;;;5.97;;
71777;SDS011;59609;52.430;4.668;2023-11-21T12:34:24;7.38;;;5.80;;
71777;SDS011;59609;52.430;4.668;2023-11-21T12:36:50;6.80;;;5.53;;
71777;SDS011;59609;52.430;4.668;2023-11-21T12:39:16;7.65;;;6.22;;
71777;SDS011;59609;52.430;4.668;2023-11-21T12:41:42;9.48;;;6.30;;
71777;SDS011;59609;52.430;4.668;2023-11-21T12:44:12;7.13;;;5.80;;
71777;SDS011;59609;52.430;4.668;2023-11-21T12:46:40;7.88;;;6.25;;
71777;SDS011;59609;52.430;4.668;2023-11-21T12:49:05;5.80;;;5.00;;
71777;SDS011;59609;52.430;4.668;2023-11-21T12:51:31;6.63;;;5.77;;
71777;SDS011;59609;52.430;4.668;2023-11-21T12:53:56;7.53;;;6.43;;
71777;SDS011;59609;52.430;4.668;2023-11-21T12:56:23;6.60;;;5.85;;
71777;SDS011;59609;52.430;4.668;2023-11-21T12:58:48;7.60;;;5.63;;
71777;SDS011;59609;52.430;4.668;2023-11-21T13:01:15;7.18;;;6.13;;
71777;SDS011;59609;52.430;4.668;2023-11-21T13:03:47;8.45;;;6.25;;
71777;SDS011;59609;52.430;4.668;2023-11-21T13:06:13;7.15;;;6.03;;
71777;SDS011;59609;52.430;4.668;2023-11-21T13:08:39;8.10;;;5.75;;
71777;SDS011;59609;52.430;4.668;2023-11-21T13:11:04;8.38;;;6.47;;
71777;SDS011;59609;52.430;4.668;2023-11-21T13:13:31;7.60;;;6.00;;
71777;SDS011;59609;52.430;4.668;2023-11-21T13:16:00;10.60;;;6.25;;
71777;SDS011;59609;52.430;4.668;2023-11-21T13:18:26;7.45;;;5.93;;
71777;SDS011;59609;52.430;4.668;2023-11-21T13:20:52;8.02;;;6.47;;
71777;SDS011;59609;52.430;4.668;2023-11-21T13:23:17;9.15;;;6.55;;
71777;SDS011;59609;52.430;4.668;2023-11-21T13:25:43;7.60;;;5.97;;
71777;SDS011;59609;52.430;4.668;2023-11-21T13:28:10;8.93;;;5.78;;
71777;SDS011;59609;52.430;4.668;2023-11-21T13:30:36;11.07;;;7.82;;
71777;SDS011;59609;52.430;4.668;2023-11-21T13:35:30;9.27;;;6.18;;
71777;SDS011;59609;52.430;4.668;2023-11-21T13:38:06;9.65;;;6.43;;
71777;SDS011;59609;52.430;4.668;2023-11-21T13:40:32;9.50;;;6.28;;
71777;SDS011;59609;52.430;4.668;2023-11-21T13:43:04;8.90;;;6.05;;
71777;SDS011;59609;52.430;4.668;2023-11-21T13:45:30;9.95;;;6.05;;
71777;SDS011;59609;52.430;4.668;2023-11-21T13:47:57;8.70;;;5.78;;
71777;SDS011;59609;52.430;4.668;2023-11-21T13:50:25;7.70;;;5.35;;
71777;SDS011;59609;52.430;4.668;2023-11-21T13:52:58;6.72;;;4.85;;
71777;SDS011;59609;52.430;4.668;2023-11-21T13:55:24;7.55;;;5.65;;
71777;SDS011;59609;52.430;4.668;2023-11-21T13:57:50;7.88;;;4.10;;
71777;SDS011;59609;52.430;4.668;2023-11-21T14:00:17;7.75;;;4.03;;
71777;SDS011;59609;52.430;4.668;2023-11-21T14:03:09;8.38;;;4.72;;
71777;SDS011;59609;52.430;4.668;2023-11-21T14:05:42;8.45;;;4.05;;
71777;SDS011;59609;52.430;4.668;2023-11-21T14:08:08;6.55;;;3.58;;
71777;SDS011;59609;52.430;4.668;2023-11-21T14:10:33;6.10;;;3.60;;
71777;SDS011;59609;52.430;4.668;2023-11-21T14:13:15;7.05;;;4.80;;
71777;SDS011;59609;52.430;4.668;2023-11-21T14:15:41;7.53;;;4.40;;
71777;SDS011;59609;52.430;4.668;2023-11-21T14:18:11;7.10;;;5.70;;
71777;SDS011;59609;52.430;4.668;2023-11-21T14:20:39;7.20;;;5.53;;
71777;SDS011;59609;52.430;4.668;2023-11-21T14:23:05;7.97;;;5.57;;
71777;SDS011;59609;52.430;4.668;2023-11-21T14:25:34;7.50;;;5.95;;
71777;SDS011;59609;52.430;4.668;2023-11-21T14:28:01;6.53;;;5.80;;
71777;SDS011;59609;52.430;4.668;2023-11-21T14:30:28;8.20;;;5.90;;
71777;SDS011;59609;52.430;4.668;2023-11-21T14:32:55;8.35;;;5.80;;
71777;SDS011;59609;52.430;4.668;2023-11-21T14:35:20;7.97;;;5.80;;
71777;SDS011;59609;52.430;4.668;2023-11-21T14:37:45;7.03;;;6.00;;
71777;SDS011;59609;52.430;4.668;2023-11-21T14:40:11;6.80;;;5.85;;
71777;SDS011;59609;52.430;4.668;2023-11-21T14:42:37;8.40;;;5.80;;
71777;SDS011;59609;52.430;4.668;2023-11-21T14:45:04;8.52;;;5.78;;
71777;SDS011;59609;52.430;4.668;2023-11-21T14:47:34;5.78;;;5.18;;
71777;SDS011;59609;52.430;4.668;2023-11-21T14:50:02;6.07;;;4.90;;
71777;SDS011;59609;52.430;4.668;2023-11-21T14:52:48;5.80;;;3.95;;
71777;SDS011;59609;52.430;4.668;2023-11-21T14:55:20;5.32;;;3.67;;
71777;SDS011;59609;52.430;4.668;2023-11-21T14:57:51;5.20;;;3.58;;